| time (UTC) | temp C | wind direction | speed KPH | gust KPH | rain 1hr cm | rain 24hr cm | rain mn cm | humidity % | barometer mb |
| 20260507091554 | 8 | 0 | 0.0 | 6.4 | 0.00 | 0.61 | 0.15 | 87 | 1005.8 |
| 20260507090056 | 8 | 360 | 1.6 | 4.8 | 0.00 | 0.61 | 0.15 | 87 | 1006.1 |
| 20260507084553 | 8 | 0 | 1.6 | 9.7 | 0.00 | 0.61 | 0.15 | 87 | 1006.0 |
| 20260507083056 | 8 | 360 | 3.2 | 9.7 | 0.00 | 0.61 | 0.15 | 87 | 1006.2 |
| 20260507081559 | 8 | 360 | 1.6 | 12.9 | 0.00 | 0.61 | 0.15 | 89 | 1005.5 |
| 20260507080059 | 9 | 0 | 1.6 | 9.7 | 0.00 | 0.61 | 0.15 | 90 | 1005.9 |
| 20260507074556 | 9 | 360 | 1.6 | 9.7 | 0.00 | 0.61 | 0.15 | 91 | 1005.9 |
| 20260507073130 | 9 | 360 | 1.6 | 8.0 | 0.00 | 0.61 | 0.15 | 92 | 1005.8 |
| 20260507071552 | 9 | 360 | 0.0 | 4.8 | 0.00 | 0.61 | 0.15 | 92 | 1005.4 |
| 20260507070055 | 10 | 0 | 0.0 | 1.6 | 0.00 | 0.61 | 0.15 | 92 | 1005.5 |
| 20260507064608 | 10 | 0 | 0.0 | 1.6 | 0.03 | 0.61 | 0.15 | 92 | 1005.5 |
| 20260507063102 | 10 | 0 | 0.0 | 1.6 | 0.03 | 0.61 | 0.15 | 92 | 1005.1 |
| 20260507061554 | 10 | 360 | 0.0 | 3.2 | 0.03 | 0.61 | 0.15 | 92 | 1005.2 |
| 20260507060057 | 10 | 0 | 0.0 | 4.8 | 0.05 | 0.61 | 0.15 | 92 | 1004.9 |
| 20260507054601 | 10 | 360 | 1.6 | 6.4 | 0.03 | 0.58 | 0.13 | 92 | 1004.9 |
| 20260507053101 | 10 | 0 | 1.6 | 9.7 | 0.05 | 0.58 | 0.13 | 92 | 1005.0 |
| 20260507051554 | 10 | 360 | 3.2 | 14.5 | 0.10 | 0.58 | 0.13 | 91 | 1005.0 |
| 20260507050100 | 11 | 360 | 1.6 | 17.7 | 0.10 | 0.56 | 0.10 | 92 | 1004.9 |
| 20260507044601 | 12 | 360 | 3.2 | 8.0 | 0.10 | 0.56 | 0.10 | 94 | 1004.5 |
| 20260507043054 | 12 | 360 | 1.6 | 6.4 | 0.08 | 0.53 | 0.08 | 94 | 1004.0 |
| 20260507041601 | 12 | 0 | 1.6 | 8.0 | 0.03 | 0.48 | 0.03 | 94 | 1004.2 |
| 20260507040105 | 11 | 360 | 3.2 | 6.4 | 0.00 | 0.46 | 0.00 | 94 | 1004.5 |
| 20260507034615 | 11 | 0 | 1.6 | 6.4 | 0.00 | 0.46 | 0.46 | 94 | 1004.0 |
| 20260507033106 | 11 | 0 | 0.0 | 6.4 | 0.00 | 0.46 | 0.46 | 94 | 1003.8 |
| 20260507031552 | 11 | 360 | 0.0 | 6.4 | 0.00 | 0.46 | 0.46 | 94 | 1003.9 |
| 20260507030054 | 11 | 0 | 0.0 | 6.4 | 0.00 | 0.46 | 0.46 | 93 | 1003.9 |
| 20260507024603 | 11 | 360 | 1.6 | 6.4 | 0.03 | 0.46 | 0.46 | 93 | 1004.0 |
| 20260507023054 | 11 | 360 | 1.6 | 9.7 | 0.03 | 0.46 | 0.46 | 93 | 1004.2 |
| 20260507021604 | 11 | 360 | 3.2 | 9.7 | 0.03 | 0.46 | 0.46 | 93 | 1004.4 |
| 20260507020054 | 11 | 360 | 1.6 | 14.5 | 0.05 | 0.46 | 0.46 | 93 | 1004.4 |
| 20260507014555 | 11 | 360 | 3.2 | 16.1 | 0.03 | 0.43 | 0.43 | 93 | 1004.5 |
| 20260507013106 | 11 | 360 | 4.8 | 16.1 | 0.03 | 0.43 | 0.43 | 93 | 1004.7 |
| 20260507011551 | 11 | 360 | 3.2 | 19.3 | 0.03 | 0.43 | 0.43 | 93 | 1004.6 |
| 20260507010054 | 11 | 360 | 6.4 | 17.7 | 0.00 | 0.41 | 0.41 | 92 | 1004.8 |
| 20260507004554 | 11 | 360 | 4.8 | 19.3 | 0.00 | 0.41 | 0.41 | 92 | 1005.0 |
| 20260507003052 | 11 | 360 | 6.4 | 22.5 | 0.00 | 0.41 | 0.41 | 91 | 1005.0 |
| 20260507001608 | 11 | 360 | 8.0 | 20.9 | 0.00 | 0.41 | 0.41 | 91 | 1005.0 |
| 20260507000052 | 11 | 360 | 11.3 | 25.7 | 0.00 | 0.41 | 0.41 | 91 | 1005.0 |
| 20260506234558 | 11 | 360 | 8.0 | 22.5 | 0.00 | 0.41 | 0.41 | 91 | 1005.0 |
| 20260506233053 | 11 | 360 | 6.4 | 19.3 | 0.00 | 0.41 | 0.41 | 90 | 1004.9 |
| 20260506231556 | 11 | 360 | 9.7 | 24.1 | 0.00 | 0.41 | 0.41 | 90 | 1005.2 |
| 20260506230050 | 11 | 360 | 8.0 | 24.1 | 0.00 | 0.41 | 0.41 | 90 | 1005.2 |
| 20260506224606 | 11 | 360 | 6.4 | 19.3 | 0.03 | 0.41 | 0.41 | 90 | 1005.2 |
| 20260506223058 | 11 | 360 | 8.0 | 27.4 | 0.05 | 0.41 | 0.41 | 90 | 1005.5 |
| 20260506221553 | 11 | 360 | 9.7 | 24.1 | 0.08 | 0.41 | 0.41 | 89 | 1005.6 |
| 20260506220104 | 12 | 360 | 9.7 | 30.6 | 0.10 | 0.41 | 0.41 | 89 | 1005.6 |
| 20260506214551 | 11 | 360 | 6.4 | 16.1 | 0.13 | 0.38 | 0.38 | 88 | 1005.7 |
| 20260506213052 | 12 | 360 | 6.4 | 24.1 | 0.13 | 0.36 | 0.36 | 88 | 1005.8 |
| 20260506211554 | 12 | 360 | 6.4 | 27.4 | 0.10 | 0.33 | 0.33 | 88 | 1006.1 |
| 20260506210054 | 12 | 360 | 6.4 | 22.5 | 0.08 | 0.30 | 0.30 | 87 | 1006.0 |
| 20260506204551 | 12 | 360 | 4.8 | 22.5 | 0.10 | 0.25 | 0.25 | 86 | 1006.1 |
| 20260506203058 | 12 | 360 | 9.7 | 22.5 | 0.15 | 0.23 | 0.23 | 86 | 1006.1 |
| 20260506201551 | 12 | 360 | 3.2 | 17.7 | 0.20 | 0.23 | 0.23 | 87 | 1005.9 |
| 20260506200051 | 13 | 360 | 4.8 | 14.5 | 0.23 | 0.23 | 0.23 | 87 | 1006.2 |
| 20260506194553 | 12 | 360 | 4.8 | 19.3 | 0.15 | 0.15 | 0.15 | 87 | 1006.4 |
| 20260506193053 | 12 | 360 | 4.8 | 12.9 | 0.08 | 0.08 | 0.08 | 85 | 1006.6 |
| 20260506191548 | 12 | 360 | 1.6 | 9.7 | 0.03 | 0.03 | 0.03 | 83 | 1006.5 |
| 20260506190052 | 13 | 360 | 6.4 | 19.3 | 0.00 | 0.00 | 0.00 | 81 | 1006.8 |
| 20260506184551 | 13 | 360 | 9.7 | 20.9 | 0.00 | 0.00 | 0.00 | 79 | 1006.6 |
| 20260506183058 | 13 | 360 | 12.9 | 29.0 | 0.00 | 0.00 | 0.00 | 77 | 1006.6 |
| 20260506181604 | 13 | 360 | 11.3 | 24.1 | 0.00 | 0.00 | 0.00 | 76 | 1006.6 |
| 20260506180054 | 14 | 360 | 9.7 | 20.9 | 0.00 | 0.00 | 0.00 | 75 | 1006.7 |
| 20260506174549 | 14 | 360 | 6.4 | 19.3 | 0.00 | 0.00 | 0.00 | 75 | 1006.7 |
| 20260506173117 | 14 | 360 | 3.2 | 20.9 | 0.00 | 0.00 | 0.00 | 75 | 1006.8 |
| 20260506171556 | 15 | 360 | 4.8 | 17.7 | 0.00 | 0.00 | 0.00 | 75 | 1007.1 |
| 20260506170059 | 15 | 360 | 4.8 | 19.3 | 0.00 | 0.00 | 0.00 | 74 | 1007.3 |
| 20260506164552 | 15 | 360 | 6.4 | 14.5 | 0.00 | 0.00 | 0.00 | 74 | 1007.4 |
| 20260506163055 | 15 | 360 | 4.8 | 14.5 | 0.00 | 0.00 | 0.00 | 74 | 1007.8 |
| 20260506161550 | 15 | 360 | 3.2 | 17.7 | 0.00 | 0.00 | 0.00 | 74 | 1008.2 |
| 20260506160108 | 15 | 360 | 4.8 | 17.7 | 0.00 | 0.00 | 0.00 | 74 | 1008.5 |
| 20260506154551 | 15 | 360 | 4.8 | 16.1 | 0.00 | 0.00 | 0.00 | 75 | 1008.6 |
| 20260506153055 | 15 | 360 | 6.4 | 14.5 | 0.00 | 0.00 | 0.00 | 76 | 1008.5 |
| 20260506151551 | 15 | 360 | 6.4 | 14.5 | 0.00 | 0.00 | 0.00 | 76 | 1008.6 |
| 20260506150057 | 15 | 360 | 8.0 | 17.7 | 0.00 | 0.00 | 0.00 | 76 | 1008.6 |
| 20260506144554 | 15 | 360 | 6.4 | 14.5 | 0.00 | 0.00 | 0.00 | 76 | 1008.1 |
| 20260506143051 | 14 | 360 | 4.8 | 17.7 | 0.00 | 0.00 | 0.00 | 78 | 1008.1 |
| 20260506141554 | 14 | 360 | 3.2 | 12.9 | 0.00 | 0.00 | 0.00 | 78 | 1008.3 |
| 20260506140049 | 14 | 360 | 4.8 | 9.7 | 0.00 | 0.00 | 0.00 | 78 | 1008.8 |
| 20260506134551 | 13 | 360 | 4.8 | 8.0 | 0.00 | 0.00 | 0.00 | 79 | 1008.7 |
| 20260506133048 | 13 | 360 | 4.8 | 12.9 | 0.00 | 0.00 | 0.00 | 78 | 1008.9 |
| 20260506131600 | 13 | 360 | 4.8 | 12.9 | 0.00 | 0.00 | 0.00 | 78 | 1008.6 |
| 20260506130055 | 13 | 360 | 3.2 | 12.9 | 0.00 | 0.00 | 0.00 | 78 | 1008.6 |
| 20260506124552 | 13 | 360 | 1.6 | 8.0 | 0.00 | 0.00 | 0.00 | 78 | 1008.6 |
| 20260506123053 | 13 | 360 | 0.0 | 6.4 | 0.00 | 0.00 | 0.00 | 79 | 1008.7 |
| 20260506121552 | 13 | 360 | 0.0 | 4.8 | 0.00 | 0.00 | 0.00 | 79 | 1008.9 |
| 20260506120053 | 13 | 0 | 0.0 | 3.2 | 0.00 | 0.00 | 0.00 | 79 | 1009.1 |
| 20260506114550 | 12 | 0 | 0.0 | 1.6 | 0.00 | 0.00 | 0.00 | 79 | 1009.3 |
| 20260506113049 | 12 | 0 | 0.0 | 3.2 | 0.00 | 0.00 | 0.00 | 80 | 1009.5 |
| 20260506111552 | 12 | 360 | 0.0 | 4.8 | 0.00 | 0.00 | 0.00 | 81 | 1009.2 |
| 20260506110050 | 11 | 0 | 0.0 | 3.2 | 0.00 | 0.00 | 0.00 | 81 | 1009.3 |
| 20260506104550 | 11 | 0 | 0.0 | 1.6 | 0.00 | 0.00 | 0.00 | 81 | 1009.4 |
| 20260506103047 | 11 | 360 | 0.0 | 4.8 | 0.00 | 0.00 | 0.00 | 82 | 1008.9 |
| 20260506101549 | 11 | 0 | 0.0 | 3.2 | 0.00 | 0.00 | 0.00 | 82 | 1009.2 |
| 20260506100051 | 11 | 0 | 0.0 | 0.0 | 0.00 | 0.00 | 0.00 | 82 | 1008.8 |
| 20260506094619 | 11 | 0 | 0.0 | 0.0 | 0.00 | 0.00 | 0.00 | 81 | 1009.0 |
| 20260506093052 | 11 | 0 | 0.0 | 3.2 | 0.00 | 0.00 | 0.00 | 80 | 1008.8 |